Time;durP1;ratioP1;P1;durP2;ratioP2;P2;SDS_P1;SDS_P2;PMS_P1;PMS_P2;Temp;Humidity;BMP_temperature;BMP_pressure;BME280_temperature;BME280_humidity;BME280_pressure;Samples;Min_cycle;Max_cycle;Signal;HPM_P1;HPM_P2
2023/05/02 00:00:10;;;;;;;2.35;1.95;;;;;;;3.57;65.18;100319.44;5095596;28;20043;-61
2023/05/02 00:02:36;;;;;;;3.00;1.38;;;;;;;3.54;65.26;100321.38;5095517;28;20503;-62
2023/05/02 00:05:01;;;;;;;3.30;1.80;;;;;;;3.53;64.81;100323.16;5095140;28;20032;-61
2023/05/02 00:07:29;;;;;;;4.95;1.85;;;;;;;3.49;65.18;100329.53;5095135;28;20028;-62
2023/05/02 00:09:55;;;;;;;7.03;2.35;;;;;;;3.45;65.52;100336.72;5095761;28;20351;-62
2023/05/02 00:12:22;;;;;;;6.43;1.92;;;;;;;3.41;65.71;100326.34;5095213;28;20111;-62
2023/05/02 00:14:47;;;;;;;4.35;2.70;;;;;;;3.37;65.69;100328.25;5094917;28;20023;-61
2023/05/02 00:17:17;;;;;;;5.45;2.13;;;;;;;3.33;66.24;100328.44;5095150;28;20028;-64
2023/05/02 00:19:43;;;;;;;4.70;2.22;;;;;;;3.30;66.57;100340.03;5095478;28;20080;-61
2023/05/02 00:22:08;;;;;;;7.90;2.78;;;;;;;3.30;66.47;100340.88;5077311;28;20059;-61
2023/05/02 00:24:34;;;;;;;5.57;2.53;;;;;;;3.28;66.39;100353.31;5094890;28;20389;-62
2023/05/02 00:26:59;;;;;;;2.85;2.08;;;;;;;3.26;66.58;100357.81;5094417;28;20067;-62
2023/05/02 00:29:25;;;;;;;7.05;2.90;;;;;;;3.23;66.63;100357.97;5077856;28;20081;-61
2023/05/02 00:31:51;;;;;;;4.03;2.45;;;;;;;3.15;66.96;100346.84;5077300;28;20465;-62
2023/05/02 00:34:16;;;;;;;6.57;3.03;;;;;;;3.18;66.81;100357.28;5094642;28;20028;-62
2023/05/02 00:36:42;;;;;;;5.85;2.28;;;;;;;3.15;66.71;100358.25;5094700;28;20443;-62
2023/05/02 00:39:07;;;;;;;9.13;2.92;;;;;;;3.13;67.42;100360.13;5095051;28;20038;-62
2023/05/02 00:41:33;;;;;;;6.80;2.47;;;;;;;3.12;67.58;100370.75;5094131;28;20532;-63
2023/05/02 00:43:59;;;;;;;5.82;2.67;;;;;;;3.05;67.47;100362.22;5094918;28;20512;-62
2023/05/02 00:46:25;;;;;;;9.50;3.38;;;;;;;3.05;67.32;100375.47;5094865;28;20332;-61
2023/05/02 00:48:51;;;;;;;10.23;2.60;;;;;;;2.97;68.09;100372.25;5094390;28;20038;-62
2023/05/02 00:51:17;;;;;;;7.22;2.58;;;;;;;2.96;67.93;100379.31;5094432;28;20366;-62
2023/05/02 00:53:43;;;;;;;6.53;2.28;;;;;;;2.91;67.78;100381.31;5076398;28;20036;-64
2023/05/02 00:56:08;;;;;;;6.28;3.13;;;;;;;2.91;68.33;100391.88;5094360;28;20111;-62
2023/05/02 00:58:35;;;;;;;6.40;3.40;;;;;;;2.89;68.62;100385.75;5094330;28;20028;-61
2023/05/02 01:01:25;;;;;;;6.40;3.00;;;;;;;2.89;68.38;100383.13;5094261;28;20032;-60
2023/05/02 01:04:12;;;;;;;8.35;3.53;;;;;;;2.97;68.91;100390.75;5094226;28;20172;-62
2023/05/02 01:06:51;;;;;;;5.15;2.40;;;;;;;2.89;68.49;100398.16;5093914;28;20339;-63
2023/05/02 01:09:52;;;;;;;4.32;2.53;;;;;;;2.89;68.33;100404.28;5094171;28;20032;-60
2023/05/02 01:12:27;;;;;;;6.13;2.90;;;;;;;2.87;68.18;100400.84;5094418;28;20031;-62
2023/05/02 01:14:56;;;;;;;6.35;2.53;;;;;;;2.85;68.28;100406.19;5094065;28;20039;-62
2023/05/02 01:17:31;;;;;;;5.43;2.80;;;;;;;2.85;68.43;100407.97;5076282;28;20797;-62
2023/05/02 01:20:04;;;;;;;5.40;2.65;;;;;;;2.84;68.27;100409.78;5094502;28;20039;-62
2023/05/02 01:22:32;;;;;;;5.80;3.03;;;;;;;2.80;68.90;100415.22;5093852;28;20071;-62
2023/05/02 01:25:13;;;;;;;4.53;2.55;;;;;;;2.84;69.23;100412.41;5094160;28;20055;-61
2023/05/02 01:27:45;;;;;;;5.57;2.80;;;;;;;2.80;68.13;100417.88;5076445;28;20043;-63
2023/05/02 01:30:12;;;;;;;5.75;2.53;;;;;;;2.56;68.22;100396.75;5093825;28;20080;-61
2023/05/02 01:32:40;;;;;;;4.55;2.47;;;;;;;2.67;68.74;100421.00;5093543;28;20116;-62
2023/05/02 01:35:07;;;;;;;3.55;2.28;;;;;;;2.64;68.77;100417.59;5076210;28;20175;-62
2023/05/02 01:37:35;;;;;;;6.57;2.60;;;;;;;2.62;69.01;100425.59;5093748;28;20363;-60
2023/05/02 01:40:03;;;;;;;4.28;2.40;;;;;;;2.60;69.30;100424.78;5092834;28;20039;-62
2023/05/02 01:42:33;;;;;;;9.00;2.83;;;;;;;2.67;69.42;100436.00;5093355;28;20040;-62
2023/05/02 01:45:01;;;;;;;5.90;2.53;;;;;;;2.65;69.05;100438.72;5094020;28;20036;-62
2023/05/02 01:47:32;;;;;;;6.43;2.80;;;;;;;2.69;68.88;100445.59;5093810;28;20181;-62
2023/05/02 01:49:59;;;;;;;4.72;2.67;;;;;;;2.64;69.07;100433.47;5093302;28;20024;-62
2023/05/02 01:52:27;;;;;;;8.30;2.60;;;;;;;2.63;69.00;100440.53;5093001;28;20024;-61
2023/05/02 01:54:54;;;;;;;5.63;2.88;;;;;;;2.68;69.00;100454.47;5093558;28;20081;-62
2023/05/02 01:57:20;;;;;;;5.60;2.55;;;;;;;2.49;68.83;100419.91;5093239;28;20024;-62
2023/05/02 01:59:49;;;;;;;5.53;3.00;;;;;;;2.70;69.76;100452.63;5092989;28;20168;-61
2023/05/02 02:02:15;;;;;;;10.73;3.03;;;;;;;2.73;69.27;100465.72;5093049;28;20032;-61
2023/05/02 02:04:42;;;;;;;3.85;2.50;;;;;;;2.72;69.26;100455.19;5093297;28;20088;-62
2023/05/02 02:07:11;;;;;;;5.28;2.90;;;;;;;2.78;69.02;100464.69;5093035;28;20039;-62
2023/05/02 02:09:37;;;;;;;6.43;2.95;;;;;;;2.78;69.21;100464.69;5092752;28;20035;-61
2023/05/02 02:12:10;;;;;;;10.73;2.83;;;;;;;2.79;68.56;100464.63;5093037;28;20036;-62
2023/05/02 02:14:37;;;;;;;5.63;2.40;;;;;;;2.81;69.04;100468.06;5093208;28;20443;-60
2023/05/02 02:17:12;;;;;;;14.10;2.92;;;;;;;2.89;68.97;100486.28;5093378;28;20072;-62
2023/05/02 02:19:40;;;;;;;5.70;2.95;;;;;;;2.91;68.20;100483.59;5092705;28;20435;-63
2023/05/02 02:22:07;;;;;;;5.13;3.25;;;;;;;2.91;68.24;100479.16;5092798;28;20118;-60
2023/05/02 02:24:35;;;;;;;6.43;2.90;;;;;;;2.98;68.23;100493.00;5075684;28;20024;-61
2023/05/02 02:27:01;;;;;;;7.18;2.97;;;;;;;3.01;68.22;100492.88;5093148;28;20040;-63
2023/05/02 02:29:27;;;;;;;8.20;2.60;;;;;;;2.94;68.16;100467.59;5092675;28;20024;-62
2023/05/02 02:31:52;;;;;;;6.28;2.72;;;;;;;3.14;67.88;100499.44;5092525;28;20106;-62
2023/05/02 02:34:19;;;;;;;8.20;2.75;;;;;;;3.18;67.13;100508.13;5092809;28;20043;-62
2023/05/02 02:36:54;;;;;;;8.65;2.90;;;;;;;3.27;67.28;100507.75;5074853;28;20125;-62
2023/05/02 02:39:39;;;;;;;6.45;2.95;;;;;;;3.38;66.90;100506.47;5092452;28;20165;-62
2023/05/02 02:42:07;;;;;;;5.32;2.85;;;;;;;3.41;66.47;100509.84;5071422;28;20048;-61
2023/05/02 02:44:45;;;;;;;11.65;3.30;;;;;;;3.52;66.69;100508.56;5072344;28;20052;-63
2023/05/02 02:47:21;;;;;;;4.38;2.67;;;;;;;3.57;66.35;100518.03;5072367;28;20052;-62
2023/05/02 02:49:50;;;;;;;9.65;3.05;;;;;;;3.65;66.42;100525.69;5072370;28;20032;-62
2023/05/02 02:52:39;;;;;;;6.80;2.78;;;;;;;3.78;65.94;100520.75;5076572;28;20116;-61
2023/05/02 02:55:15;;;;;;;4.80;2.88;;;;;;;3.82;65.43;100514.38;5076434;28;20382;-61
2023/05/02 02:57:54;;;;;;;8.77;3.10;;;;;;;3.92;65.31;100524.63;5076160;28;20368;-61
2023/05/02 03:00:23;;;;;;;9.02;2.58;;;;;;;3.96;65.48;100521.75;5076379;28;20028;-61
2023/05/02 03:02:52;;;;;;;6.10;2.72;;;;;;;4.00;64.82;100525.16;5075243;28;20447;-62
2023/05/02 03:05:19;;;;;;;5.85;2.67;;;;;;;4.08;64.79;100517.72;5076151;28;20024;-61
2023/05/02 03:07:45;;;;;;;8.85;3.00;;;;;;;4.19;64.34;100525.22;5076486;28;20085;-61
2023/05/02 03:10:10;;;;;;;12.45;3.00;;;;;;;4.29;63.64;100515.09;5076098;28;20111;-63
2023/05/02 03:12:36;;;;;;;7.15;2.75;;;;;;;4.35;63.27;100514.84;5076350;28;20032;-62
2023/05/02 03:15:23;;;;;;;5.57;2.92;;;;;;;4.57;63.35;100524.47;5075472;28;20025;-62
2023/05/02 03:17:48;;;;;;;4.38;3.08;;;;;;;4.66;62.81;100521.44;5075816;28;20058;-61
2023/05/02 03:20:14;;;;;;;6.63;2.63;;;;;;;4.77;62.22;100528.03;5074872;28;20362;-62
2023/05/02 03:22:40;;;;;;;6.55;2.80;;;;;;;4.87;61.92;100526.69;5075286;28;20032;-61
2023/05/02 03:25:06;;;;;;;6.35;2.58;;;;;;;4.94;61.94;100536.09;5076476;28;20029;-63
2023/05/02 03:27:32;;;;;;;10.77;2.78;;;;;;;5.05;61.27;100535.59;5074561;28;20111;-61
2023/05/02 03:29:57;;;;;;;9.02;3.13;;;;;;;5.20;61.00;100549.94;5075920;28;20166;-61
2023/05/02 03:32:23;;;;;;;8.45;2.63;;;;;;;5.30;60.24;100540.63;5076075;28;20111;-62
2023/05/02 03:34:48;;;;;;;6.25;3.50;;;;;;;5.44;60.41;100547.94;5075435;28;20113;-62
2023/05/02 03:37:14;;;;;;;5.75;3.10;;;;;;;5.64;59.59;100551.41;5075577;28;20133;-63
2023/05/02 03:39:40;;;;;;;4.85;3.00;;;;;;;5.92;58.62;100555.41;5076061;28;20040;-59
2023/05/02 03:42:05;;;;;;;5.78;2.60;;;;;;;6.70;57.39;100544.38;5074896;28;20055;-62
2023/05/02 03:44:31;;;;;;;7.80;2.90;;;;;;;8.37;53.63;100553.81;5075253;28;20068;-62
2023/05/02 03:46:56;;;;;;;5.32;3.05;;;;;;;10.19;48.33;100536.09;5075421;28;20032;-63
2023/05/02 03:49:22;;;;;;;13.63;3.17;;;;;;;12.10;43.59;100555.78;5075566;28;20363;-64
2023/05/02 03:51:47;;;;;;;4.43;2.75;;;;;;;13.67;39.46;100546.25;5075840;28;20222;-64
2023/05/02 03:54:13;;;;;;;6.03;2.53;;;;;;;14.90;36.35;100523.38;5075201;28;20443;-62
2023/05/02 03:56:38;;;;;;;5.88;2.22;;;;;;;16.29;33.65;100553.22;5075241;28;20474;-61
2023/05/02 03:59:04;;;;;;;3.75;2.38;;;;;;;17.38;31.56;100555.66;5075366;28;20388;-61
2023/05/02 04:01:30;;;;;;;5.05;2.45;;;;;;;17.90;30.21;100525.22;5074757;28;20032;-61
2023/05/02 04:03:56;;;;;;;6.05;2.60;;;;;;;18.77;29.02;100555.25;5073908;28;20060;-62
2023/05/02 04:06:21;;;;;;;5.18;2.67;;;;;;;19.76;27.64;100551.28;5074831;28;20048;-62
2023/05/02 04:08:47;;;;;;;4.78;2.50;;;;;;;20.61;25.70;100552.88;5075068;28;20038;-62
2023/05/02 04:11:13;;;;;;;5.07;2.70;;;;;;;21.29;24.99;100555.28;5075158;28;20124;-62
2023/05/02 04:13:39;;;;;;;4.43;2.42;;;;;;;22.32;23.44;100563.38;5075352;28;20028;-62
2023/05/02 04:16:05;;;;;;;8.38;2.90;;;;;;;23.07;22.17;100557.22;5074547;28;20031;-62
2023/05/02 04:18:30;;;;;;;3.85;2.35;;;;;;;23.45;22.02;100567.22;5074867;28;20107;-61
2023/05/02 04:20:56;;;;;;;7.57;2.47;;;;;;;24.00;20.90;100562.16;5074956;28;20133;-62
2023/05/02 04:23:21;;;;;;;5.75;2.38;;;;;;;24.68;20.19;100569.09;5074910;28;20036;-62
2023/05/02 04:25:55;;;;;;;6.63;2.63;;;;;;;25.28;19.43;100573.28;5074363;28;20360;-62
2023/05/02 04:28:21;;;;;;;6.97;2.83;;;;;;;25.57;19.46;100544.78;5074800;28;20029;-61
2023/05/02 04:30:48;;;;;;;4.80;2.40;;;;;;;26.23;18.68;100572.59;5074929;28;20336;-63
2023/05/02 04:33:13;;;;;;;6.93;2.78;;;;;;;26.65;17.99;100561.38;5074460;28;20024;-63
2023/05/02 04:35:40;;;;;;;7.95;2.20;;;;;;;27.24;17.50;100577.97;5074634;28;20039;-62
2023/05/02 04:38:07;;;;;;;6.35;2.58;;;;;;;27.80;16.85;100578.44;5074288;28;20474;-63
2023/05/02 04:40:33;;;;;;;7.63;2.63;;;;;;;28.40;16.55;100581.88;5075705;28;20041;-62
2023/05/02 04:42:59;;;;;;;11.02;2.75;;;;;;;28.85;15.86;100578.09;5094475;28;20417;-63
2023/05/02 04:45:24;;;;;;;8.18;2.55;;;;;;;29.31;15.23;100587.78;5094479;28;20149;-62
2023/05/02 04:47:50;;;;;;;9.07;2.47;;;;;;;29.74;14.81;100582.41;5094690;28;20130;-61
2023/05/02 04:50:16;;;;;;;11.88;2.70;;;;;;;30.29;14.12;100580.56;5094428;28;20032;-61
2023/05/02 04:52:41;;;;;;;8.85;2.40;;;;;;;30.73;14.27;100574.75;5094559;28;20526;-61
2023/05/02 04:55:07;;;;;;;7.20;2.30;;;;;;;31.08;13.79;100588.53;5094431;28;20036;-62
2023/05/02 04:57:33;;;;;;;6.30;2.10;;;;;;;31.42;13.08;100585.16;5094152;28;20032;-62
2023/05/02 04:59:59;;;;;;;7.88;2.60;;;;;;;32.13;13.22;100589.59;5094171;28;20027;-62
2023/05/02 05:02:25;;;;;;;10.45;2.28;;;;;;;32.64;12.51;100586.03;5094459;28;20135;-62
2023/05/02 05:04:51;;;;;;;10.70;2.55;;;;;;;33.00;12.22;100592.13;5094003;28;20027;-62
2023/05/02 05:07:16;;;;;;;8.45;2.53;;;;;;;33.13;11.95;100570.66;5093886;28;20036;-60
2023/05/02 05:09:42;;;;;;;6.85;2.30;;;;;;;33.45;11.50;100600.50;5094476;28;20411;-63
2023/05/02 05:12:07;;;;;;;6.65;2.72;;;;;;;34.01;11.33;100592.00;5093915;28;20032;-63
2023/05/02 05:14:33;;;;;;;8.45;2.22;;;;;;;34.49;10.81;100586.63;5093535;28;20063;-63
2023/05/02 05:16:59;;;;;;;4.70;1.90;;;;;;;35.06;10.39;100586.16;5093940;28;20438;-61
2023/05/02 05:19:25;;;;;;;4.80;2.13;;;;;;;35.46;10.14;100592.22;5093934;28;20024;-62
2023/05/02 05:21:50;;;;;;;7.00;1.95;;;;;;;35.91;9.31;100596.25;5093555;28;20454;-63
2023/05/02 05:24:16;;;;;;;6.90;2.45;;;;;;;36.08;9.07;100572.09;5093383;28;20028;-62
2023/05/02 05:26:41;;;;;;;7.50;2.20;;;;;;;36.52;9.17;100595.81;5094407;28;20398;-62
2023/05/02 05:29:07;;;;;;;6.13;2.17;;;;;;;36.74;8.89;100593.53;5075994;28;20038;-62
2023/05/02 05:31:33;;;;;;;6.95;2.45;;;;;;;37.03;9.06;100595.72;5093252;28;20028;-63
2023/05/02 05:34:00;;;;;;;9.48;2.20;;;;;;;37.57;8.16;100589.69;5093703;28;20070;-62
2023/05/02 05:36:26;;;;;;;9.75;2.72;;;;;;;37.89;8.27;100599.53;5093838;28;20028;-61
2023/05/02 05:38:52;;;;;;;7.53;2.20;;;;;;;38.39;7.74;100588.28;5093495;28;20020;-63
2023/05/02 05:41:18;;;;;;;6.38;1.70;;;;;;;38.79;6.82;100604.16;5093155;28;20044;-62
2023/05/02 05:43:43;;;;;;;5.53;1.80;;;;;;;39.13;6.83;100592.88;5076167;28;20039;-62
2023/05/02 05:46:09;;;;;;;8.05;2.00;;;;;;;39.74;6.90;100587.63;5093623;28;20114;-63
2023/05/02 05:48:35;;;;;;;12.40;2.45;;;;;;;40.27;6.75;100590.50;5093421;28;20031;-62
2023/05/02 05:51:04;;;;;;;7.68;2.38;;;;;;;40.71;6.57;100597.59;5093064;28;20043;-62
2023/05/02 05:53:30;;;;;;;6.43;2.38;;;;;;;40.55;6.48;100590.59;5093365;28;20766;-64
2023/05/02 05:55:56;;;;;;;3.80;2.10;;;;;;;40.89;5.86;100586.59;5093798;28;20111;-63
2023/05/02 05:58:22;;;;;;;6.22;1.90;;;;;;;41.23;5.56;100584.56;5093383;28;20112;-65
2023/05/02 06:00:48;;;;;;;3.05;1.80;;;;;;;41.67;5.70;100587.81;5093498;28;20032;-62
2023/05/02 06:03:13;;;;;;;4.70;1.52;;;;;;;41.94;5.20;100584.09;5093590;28;20024;-62
2023/05/02 06:05:39;;;;;;;4.68;1.67;;;;;;;42.23;4.90;100584.84;5059017;28;20024;-62
2023/05/02 06:08:05;;;;;;;8.02;1.83;;;;;;;42.49;4.73;100589.84;5093400;28;20078;-63
2023/05/02 06:10:31;;;;;;;4.20;1.63;;;;;;;42.64;4.78;100592.22;5092873;28;20039;-62
2023/05/02 06:12:57;;;;;;;4.50;1.60;;;;;;;43.02;4.39;100588.94;5093096;28;20034;-63
2023/05/02 06:15:22;;;;;;;3.10;1.48;;;;;;;43.27;4.36;100589.34;5093373;28;20028;-63
2023/05/02 06:17:50;;;;;;;3.95;1.60;;;;;;;43.58;4.25;100594.03;5093511;28;20024;-63
2023/05/02 06:20:16;;;;;;;3.28;1.42;;;;;;;43.73;3.74;100587.13;5075316;28;20058;-65
2023/05/02 06:22:41;;;;;;;2.83;1.02;;;;;;;43.91;3.44;100581.47;5092893;28;20355;-64
2023/05/02 06:25:07;;;;;;;2.67;0.90;;;;;;;44.06;3.07;100585.78;5092768;28;20032;-64
2023/05/02 06:27:33;;;;;;;2.67;0.80;;;;;;;44.09;3.20;100585.09;5092709;28;20028;-63
2023/05/02 06:29:59;;;;;;;2.03;0.70;;;;;;;44.22;3.20;100576.81;5092902;28;20106;-63
2023/05/02 06:32:28;;;;;;;1.75;0.88;;;;;;;44.45;2.79;100575.44;5092758;28;20123;-64
2023/05/02 06:34:54;;;;;;;2.92;1.10;;;;;;;44.78;3.35;100587.28;5092799;28;20427;-64
2023/05/02 06:37:19;;;;;;;4.28;1.30;;;;;;;44.99;3.10;100588.22;5093069;28;20024;-62
2023/05/02 06:39:45;;;;;;;4.05;1.20;;;;;;;45.16;3.16;100581.63;5093201;28;20470;-62
2023/05/02 06:42:10;;;;;;;4.22;1.25;;;;;;;45.52;2.87;100587.09;5092475;28;20066;-61
2023/05/02 06:44:36;;;;;;;3.78;1.10;;;;;;;45.50;2.95;100583.81;5092830;28;20040;-63
2023/05/02 06:47:04;;;;;;;4.57;1.40;;;;;;;45.53;2.96;100595.22;5092606;28;20047;-63
2023/05/02 06:49:30;;;;;;;3.53;1.30;;;;;;;45.55;2.76;100584.41;5092650;28;20119;-62
2023/05/02 06:51:55;;;;;;;4.75;1.33;;;;;;;45.48;2.53;100589.78;5092656;28;20458;-63
2023/05/02 06:54:21;;;;;;;2.80;1.08;;;;;;;45.52;2.55;100565.28;5092412;28;20082;-61
2023/05/02 06:56:46;;;;;;;4.20;1.10;;;;;;;45.82;2.86;100573.75;5075116;28;20024;-62
2023/05/02 06:59:12;;;;;;;2.65;1.30;;;;;;;46.05;2.16;100586.69;5092562;28;20032;-63
2023/05/02 07:01:37;;;;;;;3.35;1.30;;;;;;;45.77;2.76;100592.94;5092380;28;20391;-63
2023/05/02 07:04:04;;;;;;;7.00;1.52;;;;;;;45.75;2.72;100587.59;5092488;28;20028;-62
2023/05/02 07:06:31;;;;;;;4.97;1.30;;;;;;;45.98;2.46;100585.25;5092493;28;20066;-63
2023/05/02 07:08:56;;;;;;;3.80;1.25;;;;;;;46.25;2.39;100585.84;5092373;28;20039;-61
2023/05/02 07:11:22;;;;;;;2.53;0.93;;;;;;;46.36;2.09;100599.53;5092121;28;20024;-61
2023/05/02 07:13:49;;;;;;;18.67;2.45;;;;;;;46.61;2.27;100605.28;5092981;28;20401;-63
2023/05/02 07:16:15;;;;;;;3.75;1.10;;;;;;;46.98;1.92;100591.19;5092378;28;20039;-63
2023/05/02 07:18:41;;;;;;;2.40;1.13;;;;;;;47.03;1.88;100595.75;5092124;28;20046;-63
2023/05/02 07:21:07;;;;;;;2.50;1.10;;;;;;;46.62;1.97;100587.94;5074632;28;20454;-62
2023/05/02 07:23:33;;;;;;;3.60;1.10;;;;;;;46.44;2.42;100590.94;5092284;28;20024;-63
2023/05/02 07:25:59;;;;;;;3.67;1.20;;;;;;;46.38;2.21;100585.84;5091987;28;20442;-62
2023/05/02 07:28:24;;;;;;;2.97;0.98;;;;;;;46.61;1.68;100585.44;5074341;28;20028;-62
2023/05/02 07:30:50;;;;;;;2.10;1.15;;;;;;;47.12;1.90;100588.78;5092572;28;20036;-63
2023/05/02 07:33:16;;;;;;;3.08;1.35;;;;;;;47.58;1.95;100594.31;5092188;28;20043;-65
2023/05/02 07:35:42;;;;;;;10.00;1.38;;;;;;;47.93;1.63;100580.72;5092198;28;20106;-63
2023/05/02 07:38:08;;;;;;;4.63;1.30;;;;;;;48.21;1.39;100579.88;5076766;28;20032;-61
2023/05/02 07:40:33;;;;;;;3.80;1.38;;;;;;;47.83;1.53;100577.22;5095600;28;20135;-63
2023/05/02 07:43:02;;;;;;;1.30;0.90;;;;;;;47.81;0.75;100581.59;5078330;28;20071;-63
2023/05/02 07:45:28;;;;;;;4.22;1.60;;;;;;;46.28;2.23;100578.63;5096098;28;20518;-63
2023/05/02 07:47:53;;;;;;;4.43;1.33;;;;;;;45.91;2.34;100578.50;5095866;28;20161;-62
2023/05/02 07:50:19;;;;;;;1.85;1.08;;;;;;;45.97;2.65;100575.09;5061932;28;20020;-62
2023/05/02 07:52:44;;;;;;;2.53;1.23;;;;;;;45.27;2.51;100575.59;5096003;28;20455;-63
2023/05/02 07:55:11;;;;;;;4.40;1.20;;;;;;;44.71;2.86;100574.53;5095876;28;20036;-64
2023/05/02 07:57:36;;;;;;;2.35;0.93;;;;;;;44.02;2.81;100573.50;5077821;28;20077;-61
2023/05/02 08:00:02;;;;;;;4.93;1.35;;;;;;;42.99;2.91;100561.44;5078306;28;20020;-63
2023/05/02 08:02:30;;;;;;;4.57;1.13;;;;;;;42.48;3.65;100568.47;5095762;28;20431;-62
2023/05/02 08:04:56;;;;;;;2.95;0.93;;;;;;;41.76;3.56;100560.63;5077786;28;20039;-62
2023/05/02 08:07:21;;;;;;;2.42;0.80;;;;;;;40.14;3.83;100558.44;5095908;28;20484;-62
2023/05/02 08:09:47;;;;;;;1.88;0.80;;;;;;;37.34;5.06;100559.31;5095621;28;20480;-64
2023/05/02 08:12:12;;;;;;;0.93;0.80;;;;;;;34.05;6.99;100554.25;5077688;28;20248;-63
2023/05/02 08:14:38;;;;;;;4.22;1.10;;;;;;;31.11;8.63;100556.81;5095440;28;20389;-63
2023/05/02 08:17:03;;;;;;;1.63;0.77;;;;;;;28.64;10.16;100559.00;5077702;28;20024;-61
2023/05/02 08:19:29;;;;;;;3.80;1.08;;;;;;;26.57;12.21;100565.19;5095385;28;20063;-62
2023/05/02 08:21:54;;;;;;;1.27;0.70;;;;;;;24.50;13.52;100573.16;5095819;28;20058;-63
2023/05/02 08:24:20;;;;;;;3.97;0.90;;;;;;;22.83;15.16;100566.50;5077395;28;20028;-62
2023/05/02 08:26:46;;;;;;;3.70;1.00;;;;;;;21.47;16.50;100548.75;5095313;28;20172;-62
2023/05/02 08:29:11;;;;;;;1.13;0.90;;;;;;;20.40;17.44;100571.63;5095280;28;20024;-63
2023/05/02 08:31:40;;;;;;;2.10;0.80;;;;;;;19.48;17.62;100563.28;5077522;28;20028;-63
2023/05/02 08:34:05;;;;;;;1.70;0.85;;;;;;;18.77;18.47;100563.38;5077235;28;20517;-63
2023/05/02 08:36:31;;;;;;;2.10;0.70;;;;;;;18.08;18.91;100565.88;5095018;28;20050;-63
2023/05/02 08:38:56;;;;;;;1.63;0.80;;;;;;;17.64;19.85;100566.59;5095098;28;20050;-62
2023/05/02 08:41:23;;;;;;;1.20;0.95;;;;;;;17.20;19.89;100564.56;5094867;28;20056;-62
2023/05/02 08:43:48;;;;;;;1.70;0.82;;;;;;;16.97;20.90;100562.19;5095390;28;20384;-63
2023/05/02 08:46:16;;;;;;;2.15;0.90;;;;;;;16.90;21.24;100566.50;5094901;28;20042;-62
2023/05/02 08:48:46;;;;;;;2.75;1.27;;;;;;;16.86;20.70;100570.47;5094428;28;20020;-63
2023/05/02 08:51:14;;;;;;;4.20;1.60;;;;;;;16.84;21.41;100561.63;5094543;28;20024;-62
2023/05/02 08:53:41;;;;;;;6.20;1.52;;;;;;;16.88;21.34;100563.06;5094819;28;20024;-64
2023/05/02 08:56:07;;;;;;;2.30;0.98;;;;;;;16.83;20.64;100566.22;5094492;28;20443;-62
2023/05/02 08:58:37;;;;;;;3.35;1.52;;;;;;;16.84;21.09;100567.06;5094612;28;20382;-62
2023/05/02 09:01:20;;;;;;;1.52;0.93;;;;;;;16.62;21.10;100563.69;5094770;28;20050;-63
2023/05/02 09:03:46;;;;;;;1.88;0.77;;;;;;;16.61;21.59;100564.69;5094537;28;20050;-62
2023/05/02 09:06:15;;;;;;;1.95;1.00;;;;;;;16.61;21.17;100556.56;5094511;28;20178;-62
2023/05/02 09:08:43;;;;;;;3.28;1.20;;;;;;;16.63;21.38;100566.25;5094699;28;20574;-66
2023/05/02 09:11:10;;;;;;;4.57;2.30;;;;;;;16.55;21.58;100558.03;5094298;28;20071;-62
2023/05/02 09:13:37;;;;;;;7.10;1.60;;;;;;;16.54;21.83;100552.75;5094080;28;20115;-63
2023/05/02 09:16:09;;;;;;;2.78;1.70;;;;;;;16.58;21.78;100549.63;5094305;28;20088;-63
2023/05/02 09:18:38;;;;;;;2.42;1.20;;;;;;;16.65;21.77;100553.44;5094427;28;20044;-63
2023/05/02 09:21:17;;;;;;;2.10;1.20;;;;;;;16.70;22.21;100554.84;5093994;28;20032;-63
2023/05/02 09:23:45;;;;;;;4.85;1.30;;;;;;;16.71;21.84;100557.44;5094081;28;20039;-64
2023/05/02 09:26:19;;;;;;;4.47;3.00;;;;;;;16.72;22.08;100553.72;5094479;28;20028;-65
2023/05/02 09:28:48;;;;;;;5.00;1.75;;;;;;;16.72;22.31;100552.84;5094289;28;20024;-63
2023/05/02 09:31:24;;;;;;;4.75;1.30;;;;;;;16.67;21.98;100549.75;5093998;28;20039;-64
2023/05/02 09:33:51;;;;;;;1.48;1.00;;;;;;;16.39;21.91;100547.78;5094069;28;20028;-64
2023/05/02 09:36:19;;;;;;;2.78;1.40;;;;;;;16.35;22.43;100546.38;5094038;28;20031;-64
2023/05/02 09:38:48;;;;;;;3.35;1.30;;;;;;;16.36;21.86;100534.56;5075992;28;20032;-63
2023/05/02 09:41:14;;;;;;;3.83;1.27;;;;;;;16.43;21.64;100542.97;5093703;28;20052;-63
2023/05/02 09:43:40;;;;;;;7.35;1.50;;;;;;;16.48;21.98;100544.22;5075526;28;20035;-63
2023/05/02 09:46:10;;;;;;;4.03;0.95;;;;;;;16.54;21.84;100542.81;5093730;28;20039;-62
2023/05/02 09:48:55;;;;;;;4.20;1.10;;;;;;;16.61;21.45;100537.66;5093630;28;20421;-63
2023/05/02 09:51:22;;;;;;;4.50;1.40;;;;;;;16.40;21.61;100517.09;5093370;28;20028;-63
2023/05/02 09:53:49;;;;;;;6.68;1.52;;;;;;;16.47;22.05;100520.91;5093760;28;20054;-63
2023/05/02 09:56:15;;;;;;;4.80;1.38;;;;;;;16.50;22.58;100525.16;5093626;28;20103;-63
2023/05/02 09:58:40;;;;;;;3.28;1.10;;;;;;;16.57;21.60;100518.19;5093368;28;20032;-62
2023/05/02 10:01:06;;;;;;;1.58;1.05;;;;;;;16.66;20.85;100516.47;5058404;28;20477;-63
2023/05/02 10:03:36;;;;;;;3.20;1.00;;;;;;;16.72;21.51;100515.00;5093391;28;20115;-63
2023/05/02 10:06:06;;;;;;;3.38;1.20;;;;;;;16.72;21.41;100515.88;5093499;28;20100;-62
2023/05/02 10:08:32;;;;;;;3.72;1.00;;;;;;;16.77;21.09;100513.56;5093438;28;20063;-64
2023/05/02 10:10:59;;;;;;;8.15;1.60;;;;;;;16.79;21.27;100519.66;5093446;28;20400;-63
2023/05/02 10:13:30;;;;;;;2.58;0.98;;;;;;;16.85;22.04;100520.06;5093398;28;20095;-62
2023/05/02 10:16:00;;;;;;;6.68;1.17;;;;;;;16.78;21.09;100515.25;5076316;28;20024;-63
2023/05/02 10:19:01;;;;;;;4.45;1.00;;;;;;;16.90;21.08;100504.28;5092979;28;20024;-63
2023/05/02 10:21:27;;;;;;;2.47;1.05;;;;;;;16.85;21.81;100509.25;5092943;28;20089;-61
2023/05/02 10:23:53;;;;;;;2.03;0.95;;;;;;;16.74;20.98;100494.94;5093033;28;20350;-62
2023/05/02 10:26:22;;;;;;;3.67;1.10;;;;;;;16.63;21.18;100504.06;5092740;28;20036;-64
2023/05/02 10:28:51;;;;;;;1.95;0.80;;;;;;;16.61;21.79;100505.22;5092941;28;20103;-62
2023/05/02 10:31:17;;;;;;;1.52;1.20;;;;;;;16.62;21.91;100496.09;5092912;28;20115;-63
2023/05/02 10:33:43;;;;;;;1.63;1.10;;;;;;;16.59;21.69;100499.97;5092731;28;20179;-64
2023/05/02 10:36:11;;;;;;;3.15;1.15;;;;;;;16.66;21.17;100505.66;5074932;28;20425;-62
2023/05/02 10:38:38;;;;;;;3.13;1.17;;;;;;;16.57;21.11;100495.69;5092747;28;20175;-64
2023/05/02 10:41:17;;;;;;;2.58;1.30;;;;;;;16.65;21.04;100493.97;5092883;28;20437;-61
2023/05/02 10:43:47;;;;;;;2.28;0.98;;;;;;;16.57;20.99;100498.41;5092486;28;20112;-63
2023/05/02 10:46:33;;;;;;;5.00;1.30;;;;;;;16.53;21.60;100494.28;5092921;28;20035;-63
2023/05/02 10:49:05;;;;;;;1.57;1.00;;;;;;;16.28;21.44;100491.22;5092901;28;20040;-64
2023/05/02 10:51:31;;;;;;;44.75;4.88;;;;;;;16.11;21.50;100503.63;5092823;28;20027;-62
2023/05/02 10:54:20;;;;;;;8.95;1.25;;;;;;;16.21;21.82;100497.19;5092678;28;20510;-62
2023/05/02 10:57:05;;;;;;;3.97;1.35;;;;;;;16.28;21.44;100496.63;5079600;28;20374;-63
2023/05/02 10:59:40;;;;;;;3.53;1.40;;;;;;;16.20;21.43;100486.53;5093011;28;20036;-64
2023/05/02 11:02:24;;;;;;;3.50;1.50;;;;;;;16.21;21.60;100489.09;5092625;28;20028;-62
2023/05/02 11:05:01;;;;;;;4.20;1.10;;;;;;;16.25;21.26;100488.81;5092653;28;20032;-63
2023/05/02 11:07:28;;;;;;;2.00;1.10;;;;;;;16.14;21.27;100479.84;5092368;28;20126;-63
2023/05/02 11:10:16;;;;;;;1.58;1.08;;;;;;;16.36;21.26;100483.22;5092579;28;20404;-62
2023/05/02 11:12:50;;;;;;;3.72;1.25;;;;;;;16.11;21.65;100480.13;5095964;28;20124;-63
2023/05/02 11:15:21;;;;;;;1.60;1.08;;;;;;;15.95;22.16;100478.03;5096602;28;20104;-62
2023/05/02 11:18:06;;;;;;;3.35;1.10;;;;;;;15.97;22.38;100469.78;5096431;28;20054;-62
2023/05/02 11:20:33;;;;;;;2.93;1.23;;;;;;;15.77;22.39;100469.75;5079077;28;20119;-63
2023/05/02 11:23:24;;;;;;;2.20;0.90;;;;;;;15.94;22.50;100470.91;5096665;28;20473;-63
2023/05/02 11:25:59;;;;;;;1.65;1.30;;;;;;;15.93;22.91;100466.50;5096419;28;20028;-63
2023/05/02 11:28:37;;;;;;;3.23;1.10;;;;;;;16.04;22.24;100462.81;5096297;28;20050;-62
2023/05/02 11:31:29;;;;;;;1.45;0.70;;;;;;;15.99;22.75;100460.53;5096688;28;20039;-63
2023/05/02 11:34:02;;;;;;;1.48;1.02;;;;;;;15.96;22.75;100430.28;5096304;28;20093;-63